createdAt,value
2023-04-19T00:00:16.008Z,11.23
2023-04-19T00:01:17.484Z,10.55
2023-04-19T00:02:19.503Z,9.38
2023-04-19T00:03:21.276Z,9.43
2023-04-19T00:04:23.365Z,10.18
2023-04-19T00:05:26.214Z,10.75
2023-04-19T00:06:30.690Z,10.52
2023-04-19T00:07:32.220Z,10.32
2023-04-19T00:08:34.401Z,10.50
2023-04-19T00:09:35.922Z,9.40
2023-04-19T00:10:39.034Z,9.57
2023-04-19T00:11:41.087Z,9.70
2023-04-19T00:12:42.802Z,10.48
2023-04-19T00:13:44.470Z,12.68
2023-04-19T00:14:45.995Z,8.48
2023-04-19T00:15:47.938Z,10.25
2023-04-19T00:16:49.712Z,10.65
2023-04-19T00:17:51.356Z,9.15
2023-04-19T00:18:52.891Z,10.40
2023-04-19T00:19:54.475Z,9.32
2023-04-19T00:20:56.937Z,9.50
2023-04-19T00:21:58.468Z,9.75
2023-04-19T00:23:00.032Z,8.80
2023-04-19T00:24:02.674Z,9.77
2023-04-19T00:25:04.508Z,9.35
2023-04-19T00:26:06.195Z,10.52
2023-04-19T00:27:07.701Z,9.57
2023-04-19T00:28:09.227Z,11.95
2023-04-19T00:29:11.259Z,9.85
2023-04-19T00:30:13.498Z,10.98
2023-04-19T00:31:24.620Z,11.18
2023-04-19T00:32:26.522Z,10.40
2023-04-19T00:33:28.042Z,10.65
2023-04-19T00:34:29.645Z,9.48
2023-04-19T00:35:31.117Z,10.25
2023-04-19T00:36:32.598Z,9.20
2023-04-19T00:37:34.275Z,10.35
2023-04-19T00:38:35.817Z,10.93
2023-04-19T00:39:37.779Z,10.15
2023-04-19T00:40:39.318Z,10.57
2023-04-19T00:41:41.045Z,11.02
2023-04-19T00:42:42.812Z,9.18
2023-04-19T00:43:44.585Z,9.98
2023-04-19T00:44:46.086Z,9.98
2023-04-19T00:45:49.732Z,10.75
2023-04-19T00:46:51.883Z,10.40
2023-04-19T00:47:53.830Z,9.98
2023-04-19T00:48:58.532Z,11.88
2023-04-19T00:50:00.109Z,10.15
2023-04-19T00:51:02.663Z,11.27
2023-04-19T00:52:04.529Z,12.82
2023-04-19T00:53:07.863Z,10.10
2023-04-19T00:54:09.749Z,11.65
2023-04-19T00:55:11.578Z,10.07
2023-04-19T00:56:15.765Z,10.32
2023-04-19T00:57:19.236Z,11.05
2023-04-19T00:58:20.818Z,10.57
2023-04-19T00:59:22.755Z,9.70
2023-04-19T01:00:24.338Z,11.27
2023-04-19T01:01:26.069Z,11.27
2023-04-19T01:02:28.804Z,9.95
2023-04-19T01:03:30.717Z,10.43
2023-04-19T01:04:32.496Z,10.25
2023-04-19T01:05:34.191Z,10.98
2023-04-19T01:06:36.526Z,9.95
2023-04-19T01:07:38.056Z,11.18
2023-04-19T01:08:40.204Z,10.70
2023-04-19T01:09:43.990Z,10.80
2023-04-19T01:10:45.919Z,10.48
2023-04-19T01:11:47.438Z,9.65
2023-04-19T01:12:49.000Z,9.70
2023-04-19T01:13:51.050Z,10.15
2023-04-19T01:14:52.738Z,10.85
2023-04-19T01:15:55.279Z,10.73
2023-04-19T01:16:57.628Z,12.20
2023-04-19T01:17:59.165Z,10.30
2023-04-19T01:19:00.711Z,9.93
2023-04-19T01:20:07.260Z,9.85
2023-04-19T01:21:09.247Z,9.75
2023-04-19T01:22:23.639Z,10.73
2023-04-19T01:23:25.617Z,10.48
2023-04-19T01:24:27.056Z,12.10
2023-04-19T01:25:28.808Z,11.00
2023-04-19T01:26:30.274Z,10.57
2023-04-19T01:27:31.710Z,9.63
2023-04-19T01:28:33.480Z,9.77
2023-04-19T01:29:34.928Z,12.40
2023-04-19T01:30:37.222Z,10.02
2023-04-19T01:31:38.741Z,11.20
2023-04-19T01:32:40.308Z,12.38
2023-04-19T01:33:41.756Z,10.57
2023-04-19T01:34:43.205Z,11.15
2023-04-19T01:35:45.013Z,11.10
2023-04-19T01:36:46.480Z,9.32
2023-04-19T01:37:47.924Z,10.73
2023-04-19T01:38:49.995Z,10.27
2023-04-19T01:39:51.444Z,9.45
2023-04-19T01:40:53.808Z,12.30
2023-04-19T01:41:55.262Z,9.45
2023-04-19T01:42:56.752Z,9.95
2023-04-19T01:43:58.191Z,9.43
2023-04-19T01:44:59.916Z,10.50
2023-04-19T01:46:01.762Z,11.70
2023-04-19T01:47:04.703Z,10.02
2023-04-19T01:49:07.986Z,10.18
2023-04-19T01:50:09.728Z,10.30
2023-04-19T01:51:11.496Z,10.68
2023-04-19T01:52:12.935Z,9.77
2023-04-19T01:53:14.342Z,11.57
2023-04-19T01:54:16.163Z,10.93
2023-04-19T01:55:18.034Z,11.02
2023-04-19T01:56:20.801Z,9.77
2023-04-19T01:57:24.170Z,11.15
2023-04-19T01:58:25.635Z,11.32
2023-04-19T01:59:27.154Z,11.18
2023-04-19T02:00:28.800Z,11.70
2023-04-19T02:01:30.830Z,11.00
2023-04-19T02:02:32.424Z,10.52
2023-04-19T02:03:34.000Z,10.82
2023-04-19T02:04:35.900Z,13.60
2023-04-19T02:05:39.626Z,12.95
2023-04-19T02:06:41.136Z,10.68
2023-04-19T02:07:42.595Z,10.60
2023-04-19T02:08:44.128Z,12.15
2023-04-19T02:09:45.567Z,11.27
2023-04-19T02:10:47.067Z,10.60
2023-04-19T02:11:48.540Z,9.35
2023-04-19T02:12:50.014Z,10.23
2023-04-19T02:13:51.592Z,10.20
2023-04-19T02:14:53.016Z,9.88
2023-04-19T02:15:54.809Z,10.13
2023-04-19T02:16:56.392Z,10.68
2023-04-19T02:18:00.148Z,10.52
2023-04-19T02:19:01.761Z,10.02
2023-04-19T02:20:04.676Z,10.35
2023-04-19T02:21:08.009Z,11.02
2023-04-19T02:22:09.451Z,11.18
2023-04-19T02:23:10.857Z,12.10
2023-04-19T02:24:12.359Z,11.38
2023-04-19T02:25:13.984Z,11.77
2023-04-19T02:26:15.831Z,11.05
2023-04-19T02:27:17.759Z,11.60
2023-04-19T02:28:19.247Z,11.23
2023-04-19T02:29:21.073Z,11.93
2023-04-19T02:30:22.850Z,12.18
2023-04-19T02:31:24.318Z,15.18
2023-04-19T02:32:26.009Z,11.00
2023-04-19T02:33:28.827Z,12.00
2023-04-19T02:34:30.426Z,11.23
2023-04-19T02:35:31.890Z,12.18
2023-04-19T02:36:33.742Z,12.80
2023-04-19T02:37:35.231Z,10.55
2023-04-19T02:38:36.725Z,11.40
2023-04-19T02:39:38.195Z,10.82
2023-04-19T02:40:39.672Z,10.18
2023-04-19T02:41:41.474Z,11.68
2023-04-19T02:42:42.947Z,11.77
2023-04-19T02:43:44.387Z,11.15
2023-04-19T02:44:45.805Z,11.25
2023-04-19T02:45:47.605Z,11.82
2023-04-19T02:46:52.830Z,11.00
2023-04-19T02:47:54.305Z,11.75
2023-04-19T02:48:55.841Z,11.52
2023-04-19T02:49:57.299Z,11.77
2023-04-19T02:50:59.431Z,11.48
2023-04-19T02:52:00.859Z,11.30
2023-04-19T02:53:02.278Z,12.45
2023-04-19T02:54:03.715Z,11.93
2023-04-19T02:55:06.733Z,11.18
2023-04-19T02:57:41.212Z,11.50
2023-04-19T02:58:46.896Z,11.45
2023-04-19T02:59:48.353Z,9.93
2023-04-19T03:00:49.887Z,11.00
2023-04-19T03:01:51.655Z,12.35
2023-04-19T03:02:53.235Z,11.88
2023-04-19T03:03:54.898Z,11.98
2023-04-19T03:04:56.382Z,12.25
2023-04-19T03:05:58.387Z,10.32
2023-04-19T03:06:59.999Z,10.65
2023-04-19T03:08:01.459Z,12.15
2023-04-19T03:09:03.016Z,9.35
2023-04-19T03:10:04.848Z,12.20
2023-04-19T03:11:06.716Z,10.95
2023-04-19T03:12:08.407Z,10.68
2023-04-19T03:13:09.845Z,12.05
2023-04-19T03:14:11.362Z,10.57
2023-04-19T03:15:12.980Z,10.85
2023-04-19T03:16:14.551Z,12.48
2023-04-19T03:17:16.450Z,12.15
2023-04-19T03:18:18.013Z,12.18
2023-04-19T03:19:19.422Z,11.25
2023-04-19T03:20:21.016Z,11.50
2023-04-19T03:21:22.479Z,11.10
2023-04-19T03:22:23.927Z,10.15
2023-04-19T03:23:27.243Z,12.57
2023-04-19T03:24:31.883Z,11.43
2023-04-19T03:25:33.392Z,11.73
2023-04-19T03:26:34.841Z,12.40
2023-04-19T03:27:36.818Z,11.27
2023-04-19T03:28:38.341Z,9.95
2023-04-19T03:29:39.816Z,10.60
2023-04-19T03:30:41.366Z,10.95
2023-04-19T03:31:42.963Z,10.82
2023-04-19T03:32:44.605Z,11.30
2023-04-19T03:33:46.134Z,11.10
2023-04-19T03:34:47.620Z,10.60
2023-04-19T03:35:49.075Z,12.27
2023-04-19T03:36:50.534Z,13.10
2023-04-19T03:37:52.494Z,11.70
2023-04-19T03:38:53.922Z,10.95
2023-04-19T03:39:55.346Z,11.68
2023-04-19T03:40:57.728Z,10.38
2023-04-19T03:41:59.160Z,11.43
2023-04-19T03:43:00.566Z,10.52
2023-04-19T03:44:02.176Z,11.20
2023-04-19T03:45:04.010Z,11.75
2023-04-19T03:46:05.543Z,12.85
2023-04-19T03:47:06.950Z,11.68
2023-04-19T03:48:08.407Z,11.38
2023-04-19T03:49:09.850Z,10.15
2023-04-19T03:50:11.318Z,12.93
2023-04-19T03:51:14.056Z,12.18
2023-04-19T03:52:15.592Z,13.02
2023-04-19T03:53:18.960Z,13.20
2023-04-19T03:54:20.526Z,12.55
2023-04-19T03:55:22.087Z,12.52
2023-04-19T03:56:24.426Z,13.25
2023-04-19T03:57:26.110Z,12.38
2023-04-19T03:58:27.520Z,12.02
2023-04-19T03:59:28.926Z,12.00
2023-04-19T04:00:31.206Z,10.35
2023-04-19T04:01:33.424Z,11.70
2023-04-19T04:02:39.661Z,13.55
2023-04-19T04:03:41.625Z,11.13
2023-04-19T04:04:43.535Z,12.60
2023-04-19T04:05:45.802Z,11.95
2023-04-19T04:06:47.225Z,12.38
2023-04-19T04:07:48.637Z,14.13
2023-04-19T04:08:50.168Z,12.95
2023-04-19T04:09:51.670Z,13.23
2023-04-19T04:10:54.614Z,11.85
2023-04-19T04:11:56.080Z,11.27
2023-04-19T04:12:57.584Z,13.25
2023-04-19T04:13:59.054Z,12.95
2023-04-19T04:15:00.664Z,12.30
2023-04-19T04:16:02.530Z,11.88
2023-04-19T04:17:04.040Z,12.85
2023-04-19T04:18:07.733Z,11.90
2023-04-19T04:19:11.022Z,13.38
2023-04-19T04:20:13.671Z,12.48
2023-04-19T04:21:15.313Z,11.70
2023-04-19T04:22:17.297Z,12.57
2023-04-19T04:23:21.406Z,11.02
2023-04-19T04:24:22.907Z,12.68
2023-04-19T04:25:25.927Z,12.02
2023-04-19T04:27:32.268Z,12.60
2023-04-19T04:28:33.796Z,12.77
2023-04-19T04:29:35.644Z,12.43
2023-04-19T04:30:37.502Z,11.40
2023-04-19T04:31:39.085Z,11.95
2023-04-19T04:32:41.112Z,11.95
2023-04-19T04:33:42.738Z,11.90
2023-04-19T04:34:44.610Z,13.35
2023-04-19T04:35:46.382Z,11.93
2023-04-19T04:36:49.601Z,14.15
2023-04-19T04:37:51.028Z,15.85
2023-04-19T04:38:52.510Z,15.38
2023-04-19T04:39:53.961Z,14.20
2023-04-19T04:40:56.300Z,12.63
2023-04-19T04:41:58.168Z,15.75
2023-04-19T04:43:00.966Z,11.98
2023-04-19T04:44:22.973Z,15.35
2023-04-19T04:45:24.813Z,13.40
2023-04-19T04:46:26.829Z,13.52
2023-04-19T04:47:34.847Z,18.98
2023-04-19T04:48:36.313Z,13.57
2023-04-19T04:49:37.772Z,13.93
2023-04-19T04:50:39.426Z,14.90
2023-04-19T04:51:40.879Z,16.38
2023-04-19T04:52:42.366Z,13.10
2023-04-19T04:53:43.795Z,15.52
2023-04-19T04:54:45.282Z,12.32
2023-04-19T04:55:46.837Z,13.93
2023-04-19T04:56:48.339Z,14.80
2023-04-19T04:57:49.845Z,15.02
2023-04-19T04:58:51.381Z,14.23
2023-04-19T04:59:52.865Z,13.52
2023-04-19T05:00:54.686Z,13.30
2023-04-19T05:01:56.203Z,11.57
2023-04-19T05:02:58.526Z,11.93
2023-04-19T05:04:00.875Z,13.20
2023-04-19T05:05:03.298Z,13.95
2023-04-19T05:06:04.970Z,12.68
2023-04-19T05:07:06.690Z,14.00
2023-04-19T05:08:08.250Z,15.25
2023-04-19T05:09:09.716Z,14.35
2023-04-19T05:10:11.231Z,13.05
2023-04-19T05:11:12.721Z,13.48
2023-04-19T05:12:14.305Z,12.07
2023-04-19T05:13:16.016Z,12.52
2023-04-19T05:14:17.676Z,13.07
2023-04-19T05:15:19.309Z,14.80
2023-04-19T05:16:21.053Z,15.13
2023-04-19T05:17:22.593Z,13.15
2023-04-19T05:18:24.264Z,13.82
2023-04-19T05:19:25.693Z,14.05
2023-04-19T05:20:27.280Z,12.40
2023-04-19T05:21:28.739Z,11.85
2023-04-19T05:22:30.186Z,11.65
2023-04-19T05:23:31.626Z,12.73
2023-04-19T05:24:33.067Z,16.17
2023-04-19T05:25:34.648Z,11.93
2023-04-19T05:26:36.071Z,13.15
2023-04-19T05:27:37.680Z,11.82
2023-04-19T05:28:40.284Z,13.38
2023-04-19T05:29:41.830Z,12.82
2023-04-19T05:30:43.411Z,11.35
2023-04-19T05:31:44.943Z,11.85
2023-04-19T05:32:46.816Z,12.77
2023-04-19T05:33:48.451Z,13.88
2023-04-19T05:34:50.023Z,12.77
2023-04-19T05:35:51.498Z,13.60
2023-04-19T05:36:52.994Z,12.73
2023-04-19T05:37:54.404Z,13.65
2023-04-19T05:38:55.842Z,14.23
2023-04-19T05:39:58.278Z,13.32
2023-04-19T05:40:59.772Z,13.48
2023-04-19T05:42:01.848Z,11.45
2023-04-19T05:43:03.338Z,12.18
2023-04-19T05:44:04.998Z,11.55
2023-04-19T05:45:07.446Z,14.65
2023-04-19T05:46:08.979Z,12.60
2023-04-19T05:47:10.431Z,13.60
2023-04-19T05:48:11.873Z,15.18
2023-04-19T05:49:13.316Z,15.05
2023-04-19T05:50:17.949Z,14.63
2023-04-19T05:51:19.408Z,15.35
2023-04-19T05:52:20.830Z,14.57
2023-04-19T05:53:22.271Z,12.85
2023-04-19T05:54:23.776Z,13.68
2023-04-19T05:55:25.360Z,14.95
2023-04-19T05:56:26.825Z,13.77
2023-04-19T05:57:28.312Z,14.45
2023-04-19T05:58:29.889Z,14.88
2023-04-19T05:59:31.453Z,14.18
2023-04-19T06:00:32.925Z,15.45
2023-04-19T06:01:35.344Z,14.93
2023-04-19T06:02:37.117Z,16.80
2023-04-19T06:03:38.987Z,18.98
2023-04-19T06:04:40.976Z,14.13
2023-04-19T06:05:43.345Z,14.38
2023-04-19T06:06:44.904Z,13.95
2023-04-19T06:07:54.613Z,14.27
2023-04-19T06:08:56.908Z,14.15
2023-04-19T06:09:58.624Z,14.65
2023-04-19T06:11:05.256Z,17.60
2023-04-19T06:12:17.099Z,14.77
2023-04-19T06:13:18.524Z,15.60
2023-04-19T06:14:20.230Z,16.63
2023-04-19T06:15:21.793Z,14.88
2023-04-19T06:16:23.292Z,15.13
2023-04-19T06:17:25.647Z,15.02
2023-04-19T06:18:27.203Z,16.40
2023-04-19T06:19:28.734Z,14.70
2023-04-19T06:20:30.266Z,15.57
2023-04-19T06:21:32.788Z,17.75
2023-04-19T06:22:34.402Z,14.93
2023-04-19T06:23:35.893Z,14.75
2023-04-19T06:24:37.319Z,15.75
2023-04-19T06:25:38.884Z,15.73
2023-04-19T06:26:40.464Z,13.80
2023-04-19T06:27:41.976Z,14.40
2023-04-19T06:28:43.417Z,14.45
2023-04-19T06:29:44.886Z,14.13
2023-04-19T06:30:46.381Z,13.30
2023-04-19T06:31:48.016Z,15.38
2023-04-19T06:32:49.689Z,15.13
2023-04-19T06:33:51.305Z,16.85
2023-04-19T06:34:52.858Z,17.80
2023-04-19T06:35:54.304Z,14.40
2023-04-19T06:36:56.000Z,17.35
2023-04-19T06:37:57.517Z,15.98
2023-04-19T06:38:58.965Z,16.02
2023-04-19T06:40:00.874Z,16.95
2023-04-19T06:41:02.453Z,14.85
2023-04-19T06:42:04.110Z,17.30
2023-04-19T06:43:05.834Z,16.25
2023-04-19T06:44:07.610Z,20.15
2023-04-19T06:45:09.589Z,18.02
2023-04-19T06:46:13.765Z,17.77
2023-04-19T06:47:15.365Z,17.35
2023-04-19T06:48:16.825Z,17.20
2023-04-19T06:49:18.279Z,18.52
2023-04-19T06:50:20.148Z,17.05
2023-04-19T06:51:21.856Z,17.75
2023-04-19T06:52:24.701Z,17.23
2023-04-19T06:53:27.423Z,19.15
2023-04-19T06:54:28.992Z,17.73
2023-04-19T06:55:30.610Z,17.63
2023-04-19T06:56:46.781Z,18.35
2023-04-19T06:57:48.345Z,18.35
2023-04-19T06:58:49.781Z,19.17
2023-04-19T06:59:51.286Z,19.25
2023-04-19T07:00:53.533Z,21.48
2023-04-19T07:01:56.851Z,19.83
2023-04-19T07:02:59.926Z,21.60
2023-04-19T07:04:02.078Z,22.02
2023-04-19T07:05:03.985Z,21.10
2023-04-19T07:06:05.878Z,24.05
2023-04-19T07:07:07.466Z,21.63
2023-04-19T07:08:08.891Z,22.75
2023-04-19T07:09:10.604Z,22.77
2023-04-19T07:10:13.218Z,25.85
2023-04-19T07:11:14.627Z,21.27
2023-04-19T07:12:16.114Z,23.75
2023-04-19T07:13:17.524Z,24.45
2023-04-19T07:14:21.778Z,22.30
2023-04-19T07:15:23.343Z,22.33
2023-04-19T07:16:24.815Z,22.60
2023-04-19T07:17:26.467Z,34.35
2023-04-19T07:18:27.952Z,33.83
2023-04-19T07:19:29.422Z,26.55
2023-04-19T07:20:32.098Z,34.88
2023-04-19T07:21:35.036Z,35.67
2023-04-19T07:23:38.092Z,24.98
2023-04-19T07:24:41.732Z,25.23
2023-04-19T07:25:43.822Z,24.30
2023-04-19T07:26:45.356Z,23.00
2023-04-19T07:27:47.289Z,22.83
2023-04-19T07:28:49.441Z,23.83
2023-04-19T07:29:52.642Z,21.90
2023-04-19T07:30:54.086Z,21.65
2023-04-19T07:31:55.672Z,23.15
2023-04-19T07:32:57.316Z,24.55
2023-04-19T07:33:58.778Z,26.50
2023-04-19T07:35:00.730Z,22.08
2023-04-19T07:36:02.193Z,24.10
2023-04-19T07:37:03.609Z,23.83
2023-04-19T07:38:05.105Z,22.20
2023-04-19T07:39:06.597Z,22.58
2023-04-19T07:40:08.698Z,25.15
2023-04-19T07:41:10.354Z,25.48
2023-04-19T07:42:11.787Z,27.52
2023-04-19T07:43:13.422Z,23.13
2023-04-19T07:44:15.329Z,25.02
2023-04-19T07:45:17.071Z,25.38
2023-04-19T07:46:18.825Z,24.10
2023-04-19T07:47:20.445Z,24.58
2023-04-19T07:48:22.022Z,27.15
2023-04-19T07:49:23.912Z,23.85
2023-04-19T07:50:26.781Z,23.00
2023-04-19T07:51:28.210Z,26.13
2023-04-19T07:52:29.634Z,23.77
2023-04-19T07:53:31.058Z,27.10
2023-04-19T07:54:32.889Z,33.13
2023-04-19T07:55:34.443Z,28.55
2023-04-19T07:56:35.973Z,28.83
2023-04-19T07:57:37.861Z,32.60
2023-04-19T07:58:39.753Z,27.38
2023-04-19T07:59:41.692Z,27.80
2023-04-19T08:00:43.154Z,22.17
2023-04-19T08:01:44.668Z,23.42
2023-04-19T08:02:46.855Z,24.63
2023-04-19T08:03:48.819Z,22.25
2023-04-19T08:04:52.124Z,21.05
2023-04-19T08:05:53.992Z,24.48
2023-04-19T08:06:55.665Z,22.05
2023-04-19T08:07:57.378Z,24.35
2023-04-19T08:08:58.850Z,21.70
2023-04-19T08:10:00.565Z,23.40
2023-04-19T08:11:03.195Z,22.73
2023-04-19T08:12:04.663Z,23.13
2023-04-19T08:13:06.782Z,22.20
2023-04-19T08:14:18.523Z,22.55
2023-04-19T08:16:13.371Z,22.02
2023-04-19T08:17:55.150Z,18.95
2023-04-19T08:18:56.657Z,19.17
2023-04-19T08:19:58.641Z,19.90
2023-04-19T08:21:00.108Z,19.27
2023-04-19T08:22:03.028Z,18.17
2023-04-19T08:23:18.092Z,22.10
2023-04-19T08:24:23.356Z,19.98
2023-04-19T08:25:28.655Z,19.42
2023-04-19T08:26:30.128Z,18.63
2023-04-19T08:27:31.614Z,18.63
2023-04-19T08:28:33.085Z,18.92
2023-04-19T08:29:35.117Z,18.15
2023-04-19T08:30:36.593Z,18.77
2023-04-19T08:31:38.334Z,19.45
2023-04-19T08:32:39.833Z,20.77
2023-04-19T08:33:41.404Z,19.17
2023-04-19T08:34:43.292Z,18.33
2023-04-19T08:35:45.706Z,19.98
2023-04-19T08:37:00.092Z,19.75
2023-04-19T08:38:05.205Z,20.98
2023-04-19T08:39:12.559Z,18.90
2023-04-19T08:40:19.591Z,19.13
2023-04-19T08:41:23.219Z,19.10
2023-04-19T08:42:35.575Z,20.20
2023-04-19T08:43:40.558Z,18.23
2023-04-19T08:45:02.232Z,16.30
2023-04-19T08:46:07.800Z,17.85
2023-04-19T08:47:15.261Z,17.27
2023-04-19T08:48:23.752Z,17.45
2023-04-19T08:49:25.905Z,16.08
2023-04-19T08:50:34.453Z,16.67
2023-04-19T08:51:38.705Z,16.05
2023-04-19T08:52:51.805Z,15.80
2023-04-19T08:53:59.168Z,14.82
2023-04-19T08:55:05.654Z,15.52
2023-04-19T08:56:18.149Z,15.00
2023-04-19T08:57:25.792Z,15.02
2023-04-19T08:59:35.835Z,14.85
2023-04-19T09:00:41.339Z,13.52
2023-04-19T09:01:44.691Z,14.68
2023-04-19T09:02:51.698Z,14.73
2023-04-19T09:04:04.747Z,16.25
2023-04-19T09:05:17.272Z,13.45
2023-04-19T09:06:19.101Z,12.75
2023-04-19T09:07:28.040Z,12.65
2023-04-19T09:08:31.239Z,13.20
2023-04-19T09:09:40.677Z,13.68
2023-04-19T09:10:54.564Z,12.20
2023-04-19T09:11:57.402Z,20.30
2023-04-19T09:13:04.141Z,30.45
2023-04-19T09:14:15.539Z,17.13
2023-04-19T09:15:36.252Z,14.55
2023-04-19T09:16:39.313Z,13.20
2023-04-19T09:17:41.087Z,12.18
2023-04-19T09:19:22.446Z,10.77
2023-04-19T09:20:44.640Z,12.35
2023-04-19T09:23:04.988Z,13.40
2023-04-19T09:24:06.939Z,11.95
2023-04-19T09:27:26.145Z,11.73
2023-04-19T09:28:31.808Z,12.20
2023-04-19T09:29:33.342Z,13.07
2023-04-19T09:30:43.424Z,12.90
2023-04-19T09:31:59.295Z,12.95
2023-04-19T09:33:01.066Z,12.70
2023-04-19T09:34:17.076Z,12.00
2023-04-19T09:35:18.564Z,17.70
2023-04-19T09:36:31.235Z,13.82
2023-04-19T09:37:57.327Z,22.63
2023-04-19T09:38:54.573Z,15.00
2023-04-19T09:39:56.164Z,13.27
2023-04-19T09:41:08.559Z,11.68
2023-04-19T09:42:10.029Z,13.18
2023-04-19T09:46:37.136Z,12.38
2023-04-19T09:47:38.757Z,13.50
2023-04-19T09:48:40.340Z,13.73
2023-04-19T09:49:49.076Z,12.63
2023-04-19T09:51:00.679Z,12.10
2023-04-19T09:52:05.533Z,12.95
2023-04-19T09:53:07.343Z,12.55
2023-04-19T09:54:10.702Z,12.13
2023-04-19T09:55:24.592Z,11.27
2023-04-19T09:56:28.459Z,12.98
2023-04-19T09:57:31.574Z,12.60
2023-04-19T09:59:37.396Z,13.50
2023-04-19T10:00:47.810Z,13.90
2023-04-19T10:01:55.351Z,12.23
2023-04-19T10:02:58.730Z,13.38
2023-04-19T10:04:13.775Z,12.50
2023-04-19T10:05:25.879Z,12.05
2023-04-19T10:06:45.793Z,12.73
2023-04-19T10:07:50.349Z,14.15
2023-04-19T10:08:53.978Z,13.82
2023-04-19T10:10:04.933Z,14.07
2023-04-19T10:11:13.774Z,22.48
2023-04-19T10:13:26.643Z,12.48
2023-04-19T10:14:33.319Z,16.85
2023-04-19T10:15:49.303Z,12.63
2023-04-19T10:16:56.642Z,13.18
2023-04-19T10:17:58.400Z,13.10
2023-04-19T10:19:01.428Z,12.55
2023-04-19T10:21:11.129Z,12.00
2023-04-19T10:22:14.289Z,11.90
2023-04-19T10:23:16.506Z,11.75
2023-04-19T10:24:23.356Z,11.68
2023-04-19T10:25:31.021Z,11.68
2023-04-19T10:27:14.063Z,10.85
2023-04-19T10:28:16.801Z,13.13
2023-04-19T10:29:57.611Z,10.65
2023-04-19T10:31:03.427Z,11.23
2023-04-19T10:32:13.598Z,10.93
2023-04-19T10:33:25.225Z,11.10
2023-04-19T10:34:42.274Z,10.50
2023-04-19T10:35:44.883Z,11.25
2023-04-19T10:36:46.386Z,12.18
2023-04-19T10:38:21.262Z,10.88
2023-04-19T10:39:43.207Z,11.50
2023-04-19T10:40:56.213Z,10.70
2023-04-19T10:41:59.561Z,9.80
2023-04-19T10:43:14.648Z,10.40
2023-04-19T10:44:16.239Z,9.18
2023-04-19T10:45:34.558Z,9.10
2023-04-19T10:46:39.946Z,12.90
2023-04-19T10:47:44.104Z,9.00
2023-04-19T10:48:53.399Z,8.65
2023-04-19T10:49:57.709Z,10.35
2023-04-19T10:51:00.004Z,9.57
2023-04-19T10:52:01.543Z,9.50
2023-04-19T10:53:40.464Z,11.43
2023-04-19T10:54:41.879Z,9.43
2023-04-19T10:55:51.419Z,9.00
2023-04-19T10:57:06.278Z,8.85
2023-04-19T10:58:08.129Z,8.52
2023-04-19T10:59:21.313Z,9.25
2023-04-19T11:00:25.662Z,9.77
2023-04-19T11:01:32.025Z,8.55
2023-04-19T11:02:33.707Z,9.02
2023-04-19T11:03:44.668Z,9.45
2023-04-19T11:04:48.873Z,9.30
2023-04-19T11:06:16.972Z,8.50
2023-04-19T11:07:20.268Z,8.18
2023-04-19T11:08:25.339Z,9.43
2023-04-19T11:09:30.056Z,7.65
2023-04-19T11:10:31.609Z,8.95
2023-04-19T11:11:36.659Z,6.63
2023-04-19T11:12:42.536Z,9.02
2023-04-19T11:13:44.250Z,8.20
2023-04-19T11:14:46.707Z,7.68
2023-04-19T11:15:48.193Z,7.13
2023-04-19T11:16:50.018Z,8.27
2023-04-19T11:18:08.782Z,10.45
2023-04-19T11:19:17.498Z,10.68
2023-04-19T11:20:23.669Z,9.10
2023-04-19T11:21:25.471Z,8.27
2023-04-19T11:22:31.432Z,10.68
2023-04-19T11:23:33.225Z,8.50
2023-04-19T11:24:35.670Z,8.80
2023-04-19T11:25:37.085Z,7.20
2023-04-19T11:26:39.505Z,7.07
2023-04-19T11:27:43.030Z,7.60
2023-04-19T11:28:44.705Z,9.35
2023-04-19T11:29:46.186Z,7.43
2023-04-19T11:30:49.367Z,7.07
2023-04-19T11:31:51.035Z,9.75
2023-04-19T11:32:53.894Z,7.25
2023-04-19T11:33:55.451Z,8.95
2023-04-19T11:34:57.329Z,7.93
2023-04-19T11:35:58.869Z,7.18
2023-04-19T11:37:00.314Z,6.55
2023-04-19T11:38:01.950Z,7.22
2023-04-19T11:39:06.716Z,6.15
2023-04-19T11:40:09.287Z,6.68
2023-04-19T11:41:10.917Z,8.52
2023-04-19T11:42:20.463Z,6.32
2023-04-19T11:43:21.984Z,6.40
2023-04-19T11:44:23.504Z,6.60
2023-04-19T11:45:39.468Z,7.05
2023-04-19T11:46:41.972Z,6.70
2023-04-19T11:47:50.952Z,6.25
2023-04-19T11:48:53.454Z,4.82
2023-04-19T11:49:56.781Z,5.22
2023-04-19T11:50:59.663Z,7.57
2023-04-19T11:53:23.589Z,5.38
2023-04-19T11:54:25.982Z,6.95
2023-04-19T11:55:27.742Z,6.82
2023-04-19T11:56:29.361Z,6.40
2023-04-19T11:57:31.503Z,4.63
2023-04-19T11:58:40.714Z,6.45
2023-04-19T12:00:12.436Z,4.65
2023-04-19T12:01:21.617Z,4.28
2023-04-19T12:03:26.519Z,5.75
2023-04-19T12:04:28.987Z,4.50
2023-04-19T12:05:31.415Z,4.70
2023-04-19T12:06:32.961Z,4.10
2023-04-19T12:07:34.460Z,5.05
2023-04-19T12:08:37.874Z,4.57
2023-04-19T12:09:39.385Z,5.20
2023-04-19T12:10:56.117Z,4.40
2023-04-19T12:11:58.450Z,5.05
2023-04-19T12:13:00.506Z,6.32
2023-04-19T12:14:09.275Z,6.30
2023-04-19T12:15:11.130Z,5.13
2023-04-19T12:16:13.666Z,4.63
2023-04-19T12:17:15.930Z,4.47
2023-04-19T12:18:17.502Z,4.07
2023-04-19T12:19:20.544Z,4.72
2023-04-19T12:20:33.750Z,4.50
2023-04-19T12:21:35.273Z,4.90
2023-04-19T12:22:36.712Z,4.03
2023-04-19T12:23:38.141Z,4.35
2023-04-19T12:24:40.860Z,4.10
2023-04-19T12:25:44.640Z,3.78
2023-04-19T12:27:02.458Z,5.05
2023-04-19T12:28:05.757Z,4.20
2023-04-19T12:29:07.225Z,4.22
2023-04-19T12:30:09.901Z,4.60
2023-04-19T12:31:11.582Z,4.07
2023-04-19T12:32:14.811Z,4.75
2023-04-19T12:33:16.495Z,4.82
2023-04-19T12:34:17.958Z,5.80
2023-04-19T12:35:19.497Z,3.60
2023-04-19T12:36:21.262Z,7.10
2023-04-19T12:37:22.732Z,3.88
2023-04-19T12:38:24.163Z,3.67
2023-04-19T12:39:25.792Z,5.28
2023-04-19T12:40:27.787Z,4.45
2023-04-19T12:41:29.254Z,6.75
2023-04-19T12:42:30.663Z,9.50
2023-04-19T12:43:32.560Z,5.82
2023-04-19T12:44:34.094Z,11.73
2023-04-19T12:45:35.572Z,5.47
2023-04-19T12:46:37.068Z,6.35
2023-04-19T12:47:39.573Z,4.03
2023-04-19T12:48:41.083Z,3.50
2023-04-19T12:49:42.516Z,5.65
2023-04-19T12:50:43.954Z,4.03
2023-04-19T12:51:47.613Z,4.60
2023-04-19T12:52:49.566Z,4.22
2023-04-19T12:53:52.438Z,5.38
2023-04-19T12:57:59.399Z,4.07
2023-04-19T12:59:00.886Z,4.00
2023-04-19T13:00:02.452Z,3.78
2023-04-19T13:01:04.045Z,4.00
2023-04-19T13:02:06.092Z,3.88
2023-04-19T13:03:07.950Z,4.75
2023-04-19T13:04:12.066Z,4.60
2023-04-19T13:05:13.908Z,4.10
2023-04-19T13:06:16.880Z,4.45
2023-04-19T13:07:18.409Z,4.32
2023-04-19T13:08:28.289Z,4.90
2023-04-19T13:09:35.669Z,4.72
2023-04-19T13:10:37.138Z,3.95
2023-04-19T13:11:38.584Z,3.90
2023-04-19T13:12:40.117Z,4.28
2023-04-19T13:13:41.571Z,4.53
2023-04-19T13:14:43.429Z,3.45
2023-04-19T13:15:45.703Z,3.88
2023-04-19T13:16:47.197Z,4.78
2023-04-19T13:17:48.695Z,4.60
2023-04-19T13:18:52.279Z,4.35
2023-04-19T13:19:53.739Z,4.88
2023-04-19T13:20:55.591Z,4.82
2023-04-19T13:21:57.022Z,4.65
2023-04-19T13:22:58.482Z,4.20
2023-04-19T13:23:59.948Z,3.75
2023-04-19T13:25:01.781Z,4.35
2023-04-19T13:26:03.316Z,3.90
2023-04-19T13:27:06.691Z,4.32
2023-04-19T13:28:09.726Z,4.78
2023-04-19T13:29:11.463Z,4.20
2023-04-19T13:30:13.272Z,4.30
2023-04-19T13:31:14.859Z,5.18
2023-04-19T13:32:16.488Z,3.58
2023-04-19T13:33:17.948Z,3.83
2023-04-19T13:34:19.459Z,5.10
2023-04-19T13:35:21.745Z,4.55
2023-04-19T13:36:23.264Z,4.35
2023-04-19T13:37:24.714Z,4.97
2023-04-19T13:38:26.485Z,4.40
2023-04-19T13:39:27.928Z,4.68
2023-04-19T13:40:29.346Z,4.57
2023-04-19T13:41:30.850Z,5.25
2023-04-19T13:42:32.405Z,6.15
2023-04-19T13:43:33.831Z,4.35
2023-04-19T13:44:35.677Z,6.63
2023-04-19T13:45:37.114Z,4.32
2023-04-19T13:46:38.641Z,4.22
2023-04-19T13:47:40.223Z,4.03
2023-04-19T13:48:41.707Z,4.55
2023-04-19T13:49:43.153Z,4.43
2023-04-19T13:50:44.682Z,4.13
2023-04-19T13:51:50.216Z,4.53
2023-04-19T13:52:52.419Z,4.40
2023-04-19T13:53:54.046Z,6.78
2023-04-19T13:54:56.020Z,4.15
2023-04-19T13:55:57.712Z,5.78
2023-04-19T13:56:59.142Z,6.25
2023-04-19T13:58:00.881Z,6.65
2023-04-19T13:59:02.407Z,10.45
2023-04-19T14:00:04.322Z,6.80
2023-04-19T14:01:12.287Z,5.78
2023-04-19T14:02:13.923Z,4.65
2023-04-19T14:03:15.614Z,4.55
2023-04-19T14:04:17.677Z,5.72
2023-04-19T14:05:19.560Z,6.75
2023-04-19T14:06:21.230Z,5.22